Event-Kalender
Terminkalender Drucken Email help
Jahresansicht Monatsansicht Wochenansicht Heute Suche Zum ausgwählten Monat wechseln
Termine für
Montag, 24. April 2017



JEvents v1.5.5e   Copyright © 2006-2011

Zufallsbild

Aktuelle Termine

Mo Di Mi Do Fr Sa So
27 28 29 30 31 1 2
3 4 5 6 7 8 9
10 11 12 13 14 15 16
17 18 19 20 21 22 23
24 25 26 27 28 29 30

Pilotenwetter

[source: ADDS]
METAR
EDDH 211520Z 30013KT 9999 FEW028 BKN052 18/11 Q1021 TEMPO 29015G25KT =
TAF
TAF EDDH 211100Z 2112/2218 29013KT 9999 SCT025 SCT040 TEMPO 2112/2116 29015G25KT BECMG 2116/2119 27004KT BECMG 2206/2209 30009KT BECMG 2216/2218 34004KT =